createdAt,value
2018-09-14T00:00:26.224Z,0.00
2018-09-14T00:01:26.219Z,0.00
2018-09-14T00:02:26.220Z,0.00
2018-09-14T00:03:26.212Z,0.00
2018-09-14T00:04:26.208Z,0.00
2018-09-14T00:05:26.207Z,0.00
2018-09-14T00:06:26.201Z,0.00
2018-09-14T00:07:26.203Z,0.00
2018-09-14T00:08:26.234Z,0.00
2018-09-14T00:09:26.193Z,0.00
2018-09-14T00:10:26.192Z,0.00
2018-09-14T00:11:26.188Z,0.00
2018-09-14T00:12:26.181Z,0.00
2018-09-14T00:13:26.177Z,0.00
2018-09-14T00:14:26.178Z,0.00
2018-09-14T00:15:26.178Z,0.00
2018-09-14T00:16:26.169Z,0.00
2018-09-14T00:17:26.171Z,0.00
2018-09-14T00:18:26.162Z,0.00
2018-09-14T00:19:26.163Z,0.00
2018-09-14T00:20:26.155Z,0.00
2018-09-14T00:21:26.157Z,0.00
2018-09-14T00:22:26.154Z,0.00
2018-09-14T00:23:26.146Z,0.00
2018-09-14T00:24:26.140Z,0.00
2018-09-14T00:25:26.140Z,0.00
2018-09-14T00:26:26.143Z,0.00
2018-09-14T00:27:26.131Z,0.00
2018-09-14T00:28:26.132Z,0.00
2018-09-14T00:29:26.121Z,0.00
2018-09-14T00:30:26.123Z,0.00
2018-09-14T00:31:26.123Z,0.00
2018-09-14T00:32:26.121Z,0.00
2018-09-14T00:33:26.111Z,0.00
2018-09-14T00:34:26.110Z,0.00
2018-09-14T00:35:26.106Z,0.00
2018-09-14T00:36:26.119Z,0.00
2018-09-14T00:37:26.101Z,0.00
2018-09-14T00:38:26.092Z,0.00
2018-09-14T00:39:26.099Z,0.00
2018-09-14T00:40:26.091Z,0.00
2018-09-14T00:41:26.088Z,0.00
2018-09-14T00:42:26.089Z,0.00
2018-09-14T00:43:26.077Z,0.00
2018-09-14T00:44:26.072Z,0.00
2018-09-14T00:45:26.072Z,0.00
2018-09-14T00:46:26.070Z,0.00
2018-09-14T00:47:26.066Z,0.00
2018-09-14T00:48:26.092Z,0.00
2018-09-14T00:49:26.054Z,0.00
2018-09-14T00:50:26.056Z,0.00
2018-09-14T00:51:26.054Z,0.00
2018-09-14T00:52:26.048Z,0.00
2018-09-14T00:53:26.043Z,0.00
2018-09-14T00:54:26.040Z,0.00
2018-09-14T00:55:26.042Z,0.00
2018-09-14T00:56:26.034Z,0.00
2018-09-14T00:57:26.030Z,0.00
2018-09-14T00:58:26.026Z,0.00
2018-09-14T00:59:26.026Z,0.00
2018-09-14T01:00:26.020Z,0.00
2018-09-14T01:01:26.013Z,0.00
2018-09-14T01:02:26.015Z,0.00
2018-09-14T01:03:26.021Z,0.00
2018-09-14T01:04:25.999Z,0.00
2018-09-14T01:05:26.004Z,0.00
2018-09-14T01:06:25.997Z,0.00
2018-09-14T01:07:26.006Z,0.00
2018-09-14T01:08:25.991Z,0.00
2018-09-14T01:09:25.987Z,0.00
2018-09-14T01:10:25.984Z,0.00
2018-09-14T01:11:25.982Z,0.00
2018-09-14T01:12:25.980Z,0.00
2018-09-14T01:13:25.974Z,0.00
2018-09-14T01:14:25.968Z,0.00
2018-09-14T01:15:25.968Z,0.00
2018-09-14T01:16:25.961Z,0.00
2018-09-14T01:17:25.965Z,0.00
2018-09-14T01:18:25.956Z,0.00
2018-09-14T01:19:25.955Z,0.00
2018-09-14T01:20:25.950Z,0.00
2018-09-14T01:21:25.949Z,0.00
2018-09-14T01:22:25.943Z,0.00
2018-09-14T01:23:25.940Z,0.00
2018-09-14T01:24:25.934Z,0.00
2018-09-14T01:25:25.931Z,0.00
2018-09-14T01:26:25.929Z,0.00
2018-09-14T01:27:25.925Z,0.00
2018-09-14T01:28:25.920Z,0.00
2018-09-14T01:29:25.918Z,0.00
2018-09-14T01:30:25.914Z,0.00
2018-09-14T02:06:49.831Z,0.00
2018-09-14T02:07:49.798Z,0.00
2018-09-14T02:09:42.767Z,0.00
2018-09-14T02:10:42.739Z,0.00
2018-09-14T02:11:42.733Z,0.00
2018-09-14T02:12:42.724Z,0.00
2018-09-14T02:13:42.718Z,0.00
2018-09-14T02:14:42.710Z,0.00
2018-09-14T02:15:42.709Z,0.00
2018-09-14T02:16:42.707Z,0.00
2018-09-14T02:17:42.697Z,0.00
2018-09-14T02:18:42.694Z,0.00
2018-09-14T02:19:42.692Z,0.00
2018-09-14T02:20:42.684Z,0.00
2018-09-14T02:21:42.687Z,0.00
2018-09-14T02:22:42.675Z,0.00
2018-09-14T02:23:42.671Z,0.00
2018-09-14T02:24:42.671Z,0.00
2018-09-14T02:25:42.704Z,0.00
2018-09-14T02:26:42.664Z,0.00
2018-09-14T02:27:42.655Z,0.00
2018-09-14T02:28:42.654Z,0.00
2018-09-14T02:29:42.655Z,0.00
2018-09-14T02:30:42.651Z,0.00
2018-09-14T02:31:42.645Z,0.00
2018-09-14T02:32:42.641Z,0.00
2018-09-14T02:33:42.635Z,0.00
2018-09-14T02:34:42.636Z,0.00
2018-09-14T02:35:42.641Z,0.00
2018-09-14T02:36:42.630Z,0.00
2018-09-14T02:37:42.623Z,0.00
2018-09-14T02:38:42.624Z,0.00
2018-09-14T02:39:42.618Z,0.00
2018-09-14T02:40:42.616Z,0.00
2018-09-14T02:41:42.613Z,0.00
2018-09-14T02:42:42.609Z,0.00
2018-09-14T02:43:42.612Z,0.00
2018-09-14T02:44:42.600Z,0.00
2018-09-14T02:45:42.617Z,0.00
2018-09-14T02:46:42.602Z,0.00
2018-09-14T02:47:42.590Z,0.00
2018-09-14T02:48:42.598Z,0.00
2018-09-14T02:49:42.589Z,0.00
2018-09-14T02:50:42.585Z,0.00
2018-09-14T02:51:42.579Z,0.00
2018-09-14T02:52:42.577Z,0.00
2018-09-14T02:53:42.572Z,0.00
2018-09-14T02:54:42.575Z,0.00
2018-09-14T02:55:42.568Z,0.00
2018-09-14T02:56:42.566Z,0.00
2018-09-14T02:57:42.560Z,0.00
2018-09-14T02:58:42.562Z,0.00
2018-09-14T02:59:42.558Z,0.00
2018-09-14T03:00:42.560Z,0.00
2018-09-14T03:01:42.549Z,0.00
2018-09-14T03:02:42.542Z,0.00
2018-09-14T03:03:42.543Z,0.00
2018-09-14T03:04:42.538Z,0.00
2018-09-14T03:05:42.537Z,0.00
2018-09-14T03:06:42.539Z,0.00
2018-09-14T03:07:42.532Z,0.00
2018-09-14T03:08:42.525Z,0.00
2018-09-14T03:09:42.521Z,0.00
2018-09-14T03:10:42.517Z,0.00
2018-09-14T03:11:42.522Z,0.00
2018-09-14T03:12:42.512Z,0.00
2018-09-14T03:13:42.515Z,0.00
2018-09-14T03:14:42.514Z,0.00
2018-09-14T03:15:42.502Z,0.00
2018-09-14T03:16:42.520Z,0.00
2018-09-14T03:17:42.498Z,0.00
2018-09-14T03:18:42.491Z,0.00
2018-09-14T03:19:42.491Z,0.00
2018-09-14T03:20:42.490Z,0.00
2018-09-14T03:21:42.489Z,0.00
2018-09-14T03:22:42.478Z,0.00
2018-09-14T03:23:42.476Z,0.00
2018-09-14T03:24:42.480Z,0.00
2018-09-14T03:25:42.475Z,0.00
2018-09-14T03:26:42.468Z,0.00
2018-09-14T03:27:42.468Z,0.00
2018-09-14T03:28:43.213Z,0.00
2018-09-14T03:29:42.457Z,0.00
2018-09-14T03:30:42.453Z,0.00
2018-09-14T03:31:42.461Z,0.00
2018-09-14T03:32:42.455Z,0.00
2018-09-14T03:33:42.438Z,0.00
2018-09-14T03:34:42.440Z,0.00
2018-09-14T03:35:42.437Z,0.00
2018-09-14T03:36:42.435Z,0.00
2018-09-14T03:37:42.435Z,0.00
2018-09-14T03:38:42.427Z,0.00
2018-09-14T03:39:42.428Z,0.00
2018-09-14T03:40:42.422Z,0.00
2018-09-14T03:41:42.421Z,0.00
2018-09-14T03:42:42.421Z,0.00
2018-09-14T03:43:42.411Z,0.00
2018-09-14T03:44:42.409Z,0.00
2018-09-14T03:45:42.418Z,0.00
2018-09-14T03:46:42.403Z,0.00
2018-09-14T03:47:42.399Z,0.00
2018-09-14T03:48:42.393Z,0.00
2018-09-14T03:49:42.392Z,0.00
2018-09-14T03:50:42.389Z,0.00
2018-09-14T03:51:42.388Z,0.00
2018-09-14T03:52:42.390Z,0.00
2018-09-14T03:53:42.399Z,0.00
2018-09-14T03:54:42.378Z,0.00
2018-09-14T03:55:42.369Z,0.00
2018-09-14T03:56:42.371Z,0.00
2018-09-14T03:57:42.363Z,0.00
2018-09-14T03:58:42.360Z,0.00
2018-09-14T03:59:42.358Z,0.00
2018-09-14T04:00:42.359Z,0.00
2018-09-14T04:01:42.355Z,0.00
2018-09-14T04:02:42.352Z,0.00
2018-09-14T04:03:42.348Z,0.00
2018-09-14T04:04:42.340Z,0.00
2018-09-14T04:05:42.344Z,0.00
2018-09-14T04:06:42.336Z,0.00
2018-09-14T04:07:42.340Z,0.00
2018-09-14T04:08:42.326Z,0.00
2018-09-14T04:09:42.326Z,0.00
2018-09-14T04:10:42.321Z,0.00
2018-09-14T04:11:42.329Z,0.00
2018-09-14T04:12:42.312Z,0.00
2018-09-14T04:13:42.309Z,0.00
2018-09-14T04:14:42.310Z,0.00
2018-09-14T04:15:42.308Z,0.00
2018-09-14T04:16:42.300Z,0.00
2018-09-14T04:17:42.299Z,0.00
2018-09-14T04:18:42.324Z,0.00
2018-09-14T04:19:42.329Z,0.00
2018-09-14T04:20:42.337Z,0.00
2018-09-14T04:21:43.266Z,0.00
2018-09-14T04:22:42.353Z,0.00
2018-09-14T04:23:42.386Z,0.00
2018-09-14T04:24:42.370Z,0.00
2018-09-14T04:25:42.320Z,0.00
2018-09-14T04:26:42.277Z,0.00
2018-09-14T04:27:42.283Z,0.00
2018-09-14T04:28:42.294Z,0.00
2018-09-14T04:29:42.293Z,0.00
2018-09-14T04:30:42.270Z,0.00
2018-09-14T04:31:42.311Z,0.00
2018-09-14T04:32:42.313Z,0.00
2018-09-14T04:33:42.315Z,0.00
2018-09-14T04:34:42.280Z,0.00
2018-09-14T04:35:42.341Z,0.00
2018-09-14T04:36:42.239Z,0.00
2018-09-14T04:37:42.245Z,0.00
2018-09-14T04:38:42.287Z,0.00
2018-09-14T04:39:42.258Z,0.00
2018-09-14T04:40:42.270Z,0.00
2018-09-14T04:41:42.272Z,0.00
2018-09-14T04:42:42.275Z,0.00
2018-09-14T04:43:42.256Z,0.00
2018-09-14T04:44:42.295Z,0.00
2018-09-14T04:45:42.229Z,0.00
2018-09-14T04:46:42.305Z,0.00
2018-09-14T04:47:42.221Z,0.00
2018-09-14T04:48:42.213Z,0.00
2018-09-14T04:49:42.219Z,0.00
2018-09-14T04:50:42.230Z,0.00
2018-09-14T04:51:42.240Z,0.00
2018-09-14T04:52:42.243Z,5.63
2018-09-14T04:53:42.200Z,5.63
2018-09-14T04:54:42.255Z,5.63
2018-09-14T04:55:42.262Z,5.63
2018-09-14T04:56:42.179Z,5.63
2018-09-14T04:57:42.167Z,11.25
2018-09-14T04:58:42.178Z,11.25
2018-09-14T04:59:42.181Z,11.25
2018-09-14T05:00:42.187Z,11.25
2018-09-14T05:01:42.198Z,11.25
2018-09-14T05:02:42.204Z,16.88
2018-09-14T05:03:42.195Z,16.88
2018-09-14T05:04:42.162Z,16.88
2018-09-14T05:05:42.198Z,16.88
2018-09-14T05:06:42.178Z,16.88
2018-09-14T05:07:42.203Z,22.50
2018-09-14T05:08:42.161Z,22.50
2018-09-14T05:09:42.183Z,22.50
2018-09-14T05:10:42.156Z,28.13
2018-09-14T05:11:42.167Z,28.13
2018-09-14T05:12:42.165Z,28.13
2018-09-14T05:13:42.119Z,28.13
2018-09-14T05:14:42.179Z,28.13
2018-09-14T05:15:42.136Z,28.13
2018-09-14T05:16:42.129Z,28.13
2018-09-14T05:17:42.103Z,22.50
2018-09-14T05:18:42.106Z,22.50
2018-09-14T05:19:42.112Z,22.50
2018-09-14T05:20:42.115Z,22.50
2018-09-14T05:21:42.111Z,22.50
2018-09-14T05:22:42.101Z,22.50
2018-09-14T05:23:42.132Z,22.50
2018-09-14T05:24:42.146Z,28.13
2018-09-14T05:25:42.149Z,28.13
2018-09-14T05:26:42.156Z,33.75
2018-09-14T05:27:42.075Z,39.38
2018-09-14T05:28:42.064Z,50.63
2018-09-14T05:29:42.074Z,56.25
2018-09-14T05:30:42.079Z,61.88
2018-09-14T05:31:42.087Z,67.50
2018-09-14T05:32:42.048Z,73.13
2018-09-14T05:33:42.038Z,78.75
2018-09-14T05:34:42.037Z,84.38
2018-09-14T05:35:42.032Z,90.00
2018-09-14T05:36:42.020Z,101.25
2018-09-14T05:37:42.023Z,112.50
2018-09-14T05:38:42.042Z,123.75
2018-09-14T05:39:42.017Z,129.38
2018-09-14T05:40:42.019Z,146.25
2018-09-14T05:41:42.011Z,157.50
2018-09-14T05:42:42.008Z,168.75
2018-09-14T05:43:42.034Z,174.38
2018-09-14T05:44:41.998Z,180.00
2018-09-14T05:45:42.052Z,174.38
2018-09-14T05:46:42.007Z,163.13
2018-09-14T05:47:41.990Z,146.25
2018-09-14T05:48:41.989Z,140.63
2018-09-14T05:49:42.692Z,140.63
2018-09-14T05:50:41.984Z,118.13
2018-09-14T05:51:42.027Z,106.88
2018-09-14T05:52:42.026Z,101.25
2018-09-14T05:53:42.021Z,90.00
2018-09-14T05:54:42.033Z,84.38
2018-09-14T05:55:42.038Z,84.38
2018-09-14T05:56:42.046Z,78.75
2018-09-14T05:57:42.053Z,78.75
2018-09-14T05:58:41.976Z,78.75
2018-09-14T05:59:41.967Z,84.38
2018-09-14T06:00:41.969Z,90.00
2018-09-14T06:01:41.957Z,106.88
2018-09-14T06:02:41.947Z,118.13
2018-09-14T06:03:41.944Z,140.63
2018-09-14T06:04:41.945Z,157.50
2018-09-14T06:05:41.938Z,185.63
2018-09-14T06:06:41.988Z,219.38
2018-09-14T06:07:41.949Z,258.75
2018-09-14T06:08:41.928Z,286.88
2018-09-14T06:09:41.921Z,320.63
2018-09-14T06:10:41.921Z,354.38
2018-09-14T06:11:41.920Z,382.50
2018-09-14T06:12:41.914Z,410.63
2018-09-14T06:13:41.911Z,438.75
2018-09-14T06:14:41.910Z,450.00
2018-09-14T06:15:41.906Z,472.50
2018-09-14T06:16:41.905Z,500.63
2018-09-14T06:17:41.903Z,534.38
2018-09-14T06:18:41.899Z,551.25
2018-09-14T06:19:41.895Z,556.88
2018-09-14T06:20:41.891Z,545.63
2018-09-14T06:21:41.890Z,534.38
2018-09-14T06:22:41.916Z,528.75
2018-09-14T06:23:41.885Z,528.75
2018-09-14T06:24:41.883Z,528.75
2018-09-14T06:25:41.880Z,528.75
2018-09-14T06:26:41.880Z,528.75
2018-09-14T06:27:41.880Z,528.75
2018-09-14T06:28:41.872Z,528.75
2018-09-14T06:29:41.874Z,545.63
2018-09-14T06:30:41.871Z,534.38
2018-09-14T06:31:41.870Z,534.38
2018-09-14T06:32:41.868Z,534.38
2018-09-14T06:33:41.866Z,528.75
2018-09-14T06:34:41.865Z,523.13
2018-09-14T06:35:41.887Z,517.50
2018-09-14T06:36:41.860Z,500.63
2018-09-14T06:37:41.862Z,495.00
2018-09-14T06:38:41.869Z,478.13
2018-09-14T06:39:41.902Z,466.88
2018-09-14T06:40:41.854Z,461.25
2018-09-14T06:41:41.851Z,461.25
2018-09-14T06:42:41.848Z,461.25
2018-09-14T06:43:41.847Z,461.25
2018-09-14T06:44:41.842Z,455.63
2018-09-14T06:45:41.842Z,455.63
2018-09-14T06:46:41.841Z,461.25
2018-09-14T06:47:41.840Z,466.88
2018-09-14T06:48:41.836Z,478.13
2018-09-14T06:49:41.832Z,489.38
2018-09-14T06:50:41.835Z,495.00
2018-09-14T06:51:41.831Z,489.38
2018-09-14T06:52:41.828Z,478.13
2018-09-14T06:53:41.829Z,466.88
2018-09-14T06:54:41.824Z,455.63
2018-09-14T06:55:41.835Z,444.38
2018-09-14T06:56:41.820Z,433.13
2018-09-14T06:57:41.819Z,416.25
2018-09-14T06:58:41.817Z,393.75
2018-09-14T06:59:41.817Z,376.88
2018-09-14T07:00:41.815Z,371.25
2018-09-14T07:01:41.811Z,360.00
2018-09-14T07:02:41.810Z,365.63
2018-09-14T07:03:41.805Z,371.25
2018-09-14T07:04:41.803Z,376.88
2018-09-14T07:05:41.804Z,376.88
2018-09-14T07:06:41.813Z,388.13
2018-09-14T07:07:41.797Z,393.75
2018-09-14T07:08:41.793Z,405.00
2018-09-14T07:09:41.797Z,410.63
2018-09-14T07:10:41.792Z,405.00
2018-09-14T07:11:41.795Z,416.25
2018-09-14T07:12:41.787Z,427.50
2018-09-14T07:13:41.784Z,444.38
2018-09-14T07:14:41.784Z,472.50
2018-09-14T07:15:41.782Z,500.63
2018-09-14T07:16:41.782Z,517.50
2018-09-14T07:17:41.775Z,534.38
2018-09-14T07:18:41.779Z,556.88
2018-09-14T07:19:41.776Z,590.63
2018-09-14T07:20:41.774Z,635.63
2018-09-14T07:21:41.861Z,708.75
2018-09-14T07:22:41.769Z,804.38
2018-09-14T07:23:41.766Z,821.25
2018-09-14T07:24:41.850Z,793.13
2018-09-14T07:25:41.787Z,765.00
2018-09-14T07:26:41.796Z,736.88
2018-09-14T07:27:41.758Z,720.00
2018-09-14T07:28:41.759Z,720.00
2018-09-14T07:29:41.765Z,714.38
2018-09-14T07:30:41.788Z,720.00
2018-09-14T07:31:41.768Z,736.88
2018-09-14T07:32:41.756Z,742.50
2018-09-14T07:33:41.758Z,815.63
2018-09-14T07:34:41.752Z,871.88
2018-09-14T07:35:41.754Z,725.63
2018-09-14T07:36:41.754Z,686.25
2018-09-14T07:37:41.747Z,652.50
2018-09-14T07:38:41.752Z,658.13
2018-09-14T07:39:41.749Z,613.13
2018-09-14T07:40:41.750Z,585.00
2018-09-14T07:41:41.750Z,573.75
2018-09-14T07:42:41.745Z,556.88
2018-09-14T07:43:41.753Z,562.50
2018-09-14T07:44:41.737Z,556.88
2018-09-14T07:45:41.743Z,534.38
2018-09-14T07:46:41.746Z,517.50
2018-09-14T07:47:41.742Z,517.50
2018-09-14T07:48:41.755Z,511.88
2018-09-14T07:49:41.756Z,511.88
2018-09-14T07:50:41.736Z,534.38
2018-09-14T07:51:41.738Z,556.88
2018-09-14T07:52:41.736Z,585.00
2018-09-14T07:53:41.734Z,607.50
2018-09-14T07:54:41.733Z,641.25
2018-09-14T07:55:41.733Z,691.88
2018-09-14T07:56:41.725Z,736.88
2018-09-14T07:57:41.728Z,753.75
2018-09-14T07:58:41.729Z,810.00
2018-09-14T07:59:41.719Z,855.00
2018-09-14T08:00:41.740Z,888.75
2018-09-14T08:01:41.737Z,978.75
2018-09-14T08:02:41.746Z,1507.50
2018-09-14T08:03:41.717Z,1243.13
2018-09-14T08:04:41.727Z,1153.13
2018-09-14T08:05:41.725Z,1198.13
2018-09-14T08:06:41.733Z,1198.13
2018-09-14T08:07:41.723Z,1153.13
2018-09-14T08:08:41.721Z,1136.25
2018-09-14T08:09:41.723Z,1113.75
2018-09-14T08:10:41.723Z,1085.63
2018-09-14T08:11:41.720Z,1080.00
2018-09-14T08:12:41.728Z,1113.75
2018-09-14T08:13:41.720Z,1158.75
2018-09-14T08:14:41.730Z,1243.13
2018-09-14T08:15:41.725Z,1265.63
2018-09-14T08:16:41.733Z,1305.00
2018-09-14T08:17:41.733Z,1670.63
2018-09-14T08:18:41.726Z,1265.63
2018-09-14T08:19:41.732Z,1260.00
2018-09-14T08:20:41.732Z,1203.75
2018-09-14T08:21:41.861Z,1192.50
2018-09-14T08:22:41.731Z,1395.00
2018-09-14T08:23:41.742Z,2396.25
2018-09-14T08:24:41.733Z,3352.50
2018-09-14T08:25:41.743Z,3133.13
2018-09-14T08:26:41.778Z,1906.88
2018-09-14T08:27:41.753Z,2896.88
2018-09-14T08:28:41.760Z,1760.63
2018-09-14T08:29:41.757Z,3189.38
2018-09-14T08:30:41.761Z,1400.63
2018-09-14T08:31:41.778Z,1518.75
2018-09-14T08:32:41.775Z,2137.50
2018-09-14T08:33:41.777Z,1794.38
2018-09-14T08:34:41.782Z,1912.50
2018-09-14T08:35:41.791Z,3217.50
2018-09-14T08:36:41.793Z,2835.00
2018-09-14T08:37:41.805Z,1620.00
2018-09-14T08:38:41.802Z,1389.38
2018-09-14T08:39:41.806Z,1231.88
2018-09-14T08:40:41.814Z,1198.13
2018-09-14T08:41:41.821Z,1164.38
2018-09-14T08:42:41.825Z,1175.63
2018-09-14T08:43:41.830Z,1198.13
2018-09-14T08:44:41.838Z,1372.50
2018-09-14T08:45:41.841Z,1321.88
2018-09-14T08:46:41.847Z,1338.75
2018-09-14T08:47:41.863Z,1361.25
2018-09-14T08:48:41.852Z,1423.13
2018-09-14T08:49:41.863Z,1350.00
2018-09-14T08:50:41.861Z,1254.38
2018-09-14T08:51:41.871Z,1310.63
2018-09-14T08:52:41.873Z,1406.25
2018-09-14T08:53:41.972Z,2373.75
2018-09-14T08:54:41.877Z,1293.75
2018-09-14T08:55:41.887Z,1203.75
2018-09-14T08:56:41.891Z,1231.88
2018-09-14T08:57:41.893Z,1310.63
2018-09-14T08:58:41.897Z,1378.13
2018-09-14T08:59:41.900Z,1507.50
2018-09-14T09:00:42.008Z,1642.50
2018-09-14T09:01:41.920Z,1546.88
2018-09-14T09:02:41.908Z,1333.13
2018-09-14T09:03:41.921Z,1355.63
2018-09-14T09:04:41.916Z,1501.88
2018-09-14T09:05:41.921Z,1513.13
2018-09-14T09:06:41.925Z,1501.88
2018-09-14T09:07:41.932Z,1445.63
2018-09-14T09:08:41.930Z,1395.00
2018-09-14T09:09:41.927Z,1355.63
2018-09-14T09:10:41.939Z,1344.38
2018-09-14T09:11:41.943Z,1400.63
2018-09-14T09:12:41.947Z,1563.75
2018-09-14T09:13:41.953Z,1569.38
2018-09-14T09:14:41.949Z,1501.88
2018-09-14T09:15:41.955Z,1468.13
2018-09-14T09:16:41.958Z,1428.75
2018-09-14T09:17:42.005Z,1417.50
2018-09-14T09:18:41.965Z,1338.75
2018-09-14T09:19:41.967Z,1288.13
2018-09-14T09:20:41.970Z,1310.63
2018-09-14T09:21:41.983Z,1265.63
2018-09-14T09:22:41.975Z,1220.63
2018-09-14T09:23:41.980Z,1113.75
2018-09-14T09:24:41.983Z,1001.25
2018-09-14T09:25:41.984Z,1006.88
2018-09-14T09:26:41.991Z,1096.88
2018-09-14T09:27:41.991Z,1102.50
2018-09-14T09:28:41.995Z,1080.00
2018-09-14T09:29:41.996Z,1057.50
2018-09-14T09:30:42.000Z,1001.25
2018-09-14T09:31:42.008Z,888.75
2018-09-14T09:32:42.005Z,843.75
2018-09-14T09:33:42.007Z,838.13
2018-09-14T09:34:42.015Z,894.38
2018-09-14T09:35:42.016Z,1305.00
2018-09-14T09:36:42.021Z,1378.13
2018-09-14T09:37:42.015Z,3245.63
2018-09-14T09:38:42.022Z,3982.50
2018-09-14T09:39:42.028Z,2070.00
2018-09-14T09:40:42.029Z,1546.88
2018-09-14T09:41:42.036Z,2503.13
2018-09-14T09:42:42.034Z,3808.13
2018-09-14T09:43:42.135Z,1479.38
2018-09-14T09:44:42.044Z,1389.38
2018-09-14T09:45:42.050Z,1113.75
2018-09-14T09:46:42.060Z,1198.13
2018-09-14T09:47:42.060Z,3667.50
2018-09-14T09:48:42.066Z,1822.50
2018-09-14T09:49:42.071Z,4291.88
2018-09-14T09:50:42.073Z,2688.75
2018-09-14T09:51:42.085Z,2182.50
2018-09-14T09:52:42.093Z,2390.63
2018-09-14T09:53:42.096Z,2632.50
2018-09-14T09:54:42.101Z,3082.50
2018-09-14T09:55:42.112Z,4522.50
2018-09-14T09:56:42.180Z,2874.38
2018-09-14T09:57:42.127Z,3684.38
2018-09-14T09:58:42.120Z,4173.75
2018-09-14T09:59:42.140Z,3999.38
2018-09-14T10:00:42.149Z,3937.50
2018-09-14T10:01:42.157Z,1687.50
2018-09-14T10:02:42.168Z,1845.00
2018-09-14T10:03:42.198Z,3521.25
2018-09-14T10:04:42.198Z,3999.38
2018-09-14T10:05:42.189Z,4066.88
2018-09-14T10:06:42.209Z,4156.88
2018-09-14T10:07:42.208Z,3948.75
2018-09-14T10:08:42.215Z,4303.13
2018-09-14T10:09:42.250Z,4370.63
2018-09-14T10:10:42.266Z,4241.25
2018-09-14T10:11:42.253Z,4286.25
2018-09-14T10:12:42.286Z,4426.88
2018-09-14T10:13:42.268Z,4376.25
2018-09-14T10:14:42.286Z,4365.00
2018-09-14T10:15:42.285Z,4365.00
2018-09-14T10:16:42.306Z,4089.38
2018-09-14T10:17:42.321Z,3920.63
2018-09-14T10:18:42.329Z,4027.50
2018-09-14T10:19:42.345Z,4106.25
2018-09-14T10:20:42.425Z,4168.13
2018-09-14T10:21:42.434Z,4331.25
2018-09-14T10:22:42.382Z,2722.50
2018-09-14T10:23:42.398Z,3476.25
2018-09-14T10:24:42.403Z,2767.50
2018-09-14T10:25:42.417Z,2025.00
2018-09-14T10:26:42.449Z,3071.25
2018-09-14T10:27:42.441Z,4466.25
2018-09-14T10:28:42.442Z,4353.75
2018-09-14T10:29:42.451Z,4657.50
2018-09-14T10:30:42.469Z,4573.13
2018-09-14T10:31:42.485Z,4590.00
2018-09-14T10:32:42.491Z,4882.50
2018-09-14T10:33:42.506Z,2621.25
2018-09-14T10:34:42.524Z,3150.00
2018-09-14T10:35:42.532Z,4736.25
2018-09-14T10:36:42.544Z,4933.13
2018-09-14T10:37:42.556Z,4837.50
2018-09-14T10:38:42.567Z,4691.25
2018-09-14T10:39:42.594Z,4792.50
2018-09-14T10:40:42.638Z,4725.00
2018-09-14T10:41:42.608Z,4516.88
2018-09-14T10:42:42.645Z,4466.25
2018-09-14T10:43:42.632Z,4815.00
2018-09-14T10:44:42.647Z,4775.63
2018-09-14T10:45:42.666Z,4905.00
2018-09-14T10:46:42.664Z,3875.63
2018-09-14T10:47:42.684Z,3093.75
2018-09-14T10:48:42.701Z,3166.88
2018-09-14T10:49:42.710Z,1389.38
2018-09-14T10:50:42.724Z,1164.38
2018-09-14T10:51:42.739Z,1102.50
2018-09-14T10:52:42.748Z,1130.63
2018-09-14T10:54:10.401Z,1051.88
2018-09-14T10:54:42.800Z,961.88
2018-09-14T10:55:42.784Z,894.38
2018-09-14T10:56:42.791Z,843.75
2018-09-14T10:57:42.806Z,821.25
2018-09-14T10:58:42.820Z,781.88
2018-09-14T10:59:42.823Z,753.75
2018-09-14T11:00:42.834Z,725.63
2018-09-14T11:01:42.847Z,731.25
2018-09-14T11:02:42.846Z,759.38
2018-09-14T11:03:42.862Z,787.50
2018-09-14T11:04:42.856Z,793.13
2018-09-14T11:05:42.858Z,776.25
2018-09-14T11:06:42.957Z,753.75
2018-09-14T11:07:42.877Z,720.00
2018-09-14T11:08:42.890Z,703.13
2018-09-14T11:09:42.887Z,675.00
2018-09-14T11:10:42.889Z,663.75
2018-09-14T11:11:42.900Z,675.00
2018-09-14T11:12:42.967Z,731.25
2018-09-14T11:13:42.906Z,770.63
2018-09-14T11:14:42.916Z,798.75
2018-09-14T11:15:42.961Z,798.75
2018-09-14T11:16:42.920Z,753.75
2018-09-14T11:17:42.921Z,742.50
2018-09-14T11:18:42.977Z,708.75
2018-09-14T11:19:42.937Z,686.25
2018-09-14T11:20:43.002Z,691.88
2018-09-14T11:21:42.944Z,691.88
2018-09-14T11:22:42.946Z,714.38
2018-09-14T11:23:42.945Z,736.88
2018-09-14T11:24:43.045Z,759.38
2018-09-14T11:25:42.982Z,765.00
2018-09-14T11:26:42.954Z,759.38
2018-09-14T11:27:42.963Z,742.50
2018-09-14T11:28:42.962Z,748.13
2018-09-14T11:29:42.979Z,781.88
2018-09-14T11:30:42.988Z,810.00
2018-09-14T11:31:42.966Z,810.00
2018-09-14T11:32:42.989Z,832.50
2018-09-14T11:33:43.018Z,860.63
2018-09-14T11:34:43.037Z,810.00
2018-09-14T11:35:42.982Z,714.38
2018-09-14T11:36:42.979Z,680.63
2018-09-14T11:37:43.015Z,691.88
2018-09-14T11:38:43.067Z,826.88
2018-09-14T11:39:42.997Z,1321.88
2018-09-14T11:40:42.986Z,2885.63
2018-09-14T11:41:42.993Z,3346.88
2018-09-14T11:42:42.999Z,1231.88
2018-09-14T11:43:42.996Z,1305.00
2018-09-14T11:44:43.002Z,2497.50
2018-09-14T11:45:42.996Z,2778.75
2018-09-14T11:46:43.004Z,3161.25
2018-09-14T11:47:43.010Z,1215.00
2018-09-14T11:48:43.011Z,1085.63
2018-09-14T11:49:43.016Z,1051.88
2018-09-14T11:50:43.029Z,1080.00
2018-09-14T11:51:43.025Z,1068.75
2018-09-14T11:52:43.031Z,1440.00
2018-09-14T11:53:43.033Z,3583.13
2018-09-14T11:54:43.038Z,2385.00
2018-09-14T11:55:43.051Z,1496.25
2018-09-14T11:56:43.058Z,1423.13
2018-09-14T11:57:43.053Z,1575.00
2018-09-14T11:58:43.057Z,1485.00
2018-09-14T11:59:43.060Z,4185.00
2018-09-14T12:00:43.055Z,4342.50
2018-09-14T12:01:43.071Z,4365.00
2018-09-14T12:02:43.075Z,1541.25
2018-09-14T12:03:43.081Z,1333.13
2018-09-14T12:04:43.095Z,1293.75
2018-09-14T12:05:43.095Z,1254.38
2018-09-14T12:06:43.105Z,1428.75
2018-09-14T12:07:43.105Z,1445.63
2018-09-14T12:08:43.102Z,3813.75
2018-09-14T12:09:43.119Z,3948.75
2018-09-14T12:10:43.126Z,1355.63
2018-09-14T12:11:43.133Z,1170.00
2018-09-14T12:12:43.144Z,1237.50
2018-09-14T12:13:43.217Z,1203.75
2018-09-14T12:14:43.141Z,1164.38
2018-09-14T12:15:43.154Z,1046.25
2018-09-14T12:16:43.160Z,916.88
2018-09-14T12:17:43.163Z,866.25
2018-09-14T12:18:43.170Z,860.63
2018-09-14T12:19:43.175Z,978.75
2018-09-14T12:20:43.191Z,1018.13
2018-09-14T12:21:43.188Z,950.63
2018-09-14T12:22:43.192Z,939.38
2018-09-14T12:23:43.195Z,956.25
2018-09-14T12:24:43.200Z,973.13
2018-09-14T12:25:43.208Z,1001.25
2018-09-14T12:26:43.209Z,984.38
2018-09-14T12:27:43.215Z,956.25
2018-09-14T12:28:43.221Z,945.00
2018-09-14T12:29:43.218Z,1001.25
2018-09-14T12:30:43.226Z,1102.50
2018-09-14T12:31:43.233Z,1175.63
2018-09-14T12:32:43.231Z,1102.50
2018-09-14T12:33:43.236Z,933.75
2018-09-14T12:34:43.239Z,838.13
2018-09-14T12:35:43.312Z,787.50
2018-09-14T12:36:43.242Z,646.88
2018-09-14T12:37:43.254Z,568.13
2018-09-14T12:38:43.250Z,573.75
2018-09-14T12:39:43.257Z,585.00
2018-09-14T12:40:43.251Z,596.25
2018-09-14T12:41:43.261Z,630.00
2018-09-14T12:42:43.267Z,613.13
2018-09-14T12:43:43.267Z,590.63
2018-09-14T12:44:43.267Z,585.00
2018-09-14T12:45:43.275Z,573.75
2018-09-14T12:46:43.270Z,551.25
2018-09-14T12:47:43.277Z,466.88
2018-09-14T12:48:43.300Z,461.25
2018-09-14T12:49:43.277Z,506.25
2018-09-14T12:50:43.280Z,635.63
2018-09-14T12:51:43.280Z,658.13
2018-09-14T12:52:43.289Z,585.00
2018-09-14T12:53:43.282Z,556.88
2018-09-14T12:54:43.282Z,534.38
2018-09-14T12:55:43.284Z,534.38
2018-09-14T12:56:43.283Z,562.50
2018-09-14T12:57:43.287Z,472.50
2018-09-14T12:58:43.287Z,427.50
2018-09-14T12:59:43.289Z,416.25
2018-09-14T13:00:43.292Z,450.00
2018-09-14T13:01:43.291Z,455.63
2018-09-14T13:02:43.290Z,444.38
2018-09-14T13:03:43.293Z,444.38
2018-09-14T13:04:43.290Z,450.00
2018-09-14T13:05:43.295Z,455.63
2018-09-14T13:06:43.296Z,483.75
2018-09-14T13:07:43.296Z,506.25
2018-09-14T13:08:43.295Z,523.13
2018-09-14T13:09:43.296Z,517.50
2018-09-14T13:10:43.296Z,511.88
2018-09-14T13:11:43.299Z,545.63
2018-09-14T13:12:43.299Z,551.25
2018-09-14T13:13:43.297Z,489.38
2018-09-14T13:14:43.349Z,534.38
2018-09-14T13:15:43.305Z,624.38